Weather observations for the past three days for
Nevada County Air Park
Imperial (Metric)
Date Time (pdt) Wind (mph) Vis. (mi.) Weather Sky Cond. Temperature (ºF) Relative Humidity Wind Chill (°F) Heat Index (°F) Pressure Precipitation (in)
Air Dwpt 6 hour altimeter (in) sea level (mb) 1 hr 3 hr 6 hr
Max. Min.
31 08:30 SE 5 10.00 Fair CLR 69.8 42.8 38% 29.96 0.0
31 08:15 Calm 10.00 Fair CLR 69.8 42.8 38% 29.96 0.0
31 07:55 Calm 10.00 Fair CLR 68 42.8 40% 29.95 0.0
31 07:35 SE 3 10.00 Fair CLR 68 42.8 40% 29.95 0.0
31 07:15 SE 5 10.00 Fair CLR 68 41 38% 29.94 0.0
31 06:50 E 7 10.00 A Few Clouds FEW035 68 41 38% 29.94 0.0
31 06:35 E 7 10.00 Partly Cloudy FEW021 SCT035 SCT043 68 41 38% 29.93 0.0
31 06:15 E 5 10.00 Overcast SCT019 BKN035 OVC045 68 41 38% 29.93 0.0
31 05:55 E 6 10.00 Overcast FEW017 OVC047 68 41 38% 29.93 0.0
31 05:35 E 5 10.00 Overcast OVC049 68 41 38% 29.93 0.0
31 05:10 E 5 10.00 Overcast OVC049 66.2 41 40% 29.94 0.0
31 04:55 Calm 10.00 Overcast FEW030 FEW035 OVC049 68 41 38% 29.94 0.0
31 04:35 Calm 10.00 Overcast FEW023 OVC030 68 41 38% 29.94 0.0
31 04:15 SE 3 10.00 Overcast FEW023 BKN031 OVC039 68 39.2 35% 29.94 0.0
31 03:55 Calm 10.00 Overcast SCT032 BKN038 OVC044 68 39.2 35% 29.94 0.0
31 03:30 Calm 10.00 Overcast OVC041 66.2 41 40% 29.94 0.0
31 03:15 Calm 10.00 Overcast OVC041 66.2 41 40% 29.94 0.0
31 02:55 Calm 10.00 Overcast OVC044 66.2 39.2 37% 29.94 0.0
31 02:15 Calm 10.00 Overcast BKN031 OVC039 66.2 41 40% 29.95 0.0
31 01:50 Calm 10.00 Overcast BKN028 OVC043 69.8 39.2 33% 29.95 0.0
31 01:35 E 6 10.00 Overcast SCT031 OVC043 69.8 39.2 33% 29.95 0.0
31 01:15 Calm 10.00 Overcast OVC031 68 39.2 35% 29.95 0.0
31 00:55 Calm 10.00 Overcast SCT032 OVC042 69.8 39.2 33% 29.95 0.0
31 00:35 Calm 10.00 Overcast BKN043 BKN049 OVC060 69.8 37.4 31% 29.95 0.0
31 00:10 Calm 10.00 Overcast OVC055 69.8 37.4 31% 29.95 0.0
30 23:55 Calm 10.00 Overcast OVC060 69.8 37.4 31% 29.96 0.0
30 23:35 Calm 10.00 Overcast SCT043 OVC060 69.8 37.4 31% 29.96 0.0
30 23:15 Calm 10.00 Overcast OVC043 69.8 37.4 31% 29.96 0.0
30 22:55 SE 3 10.00 Overcast BKN046 OVC060 71.6 39.2 31% 29.96 0.0
30 22:30 E 5 10.00 Overcast SCT047 OVC060 69.8 39.2 33% 29.97 0.0
30 22:15 Calm 10.00 Overcast OVC060 69.8 39.2 33% 29.97 0.0
30 21:55 Calm 10.00 Overcast OVC065 68 39.2 35% 29.97 0.0
30 21:35 Calm 10.00 Overcast OVC065 69.8 39.2 33% 29.97 0.0
30 21:15 Calm 10.00 Overcast FEW039 OVC070 69.8 39.2 33% 29.97 0.0
30 20:50 Calm 10.00 Overcast FEW040 OVC060 69.8 41 35% 29.97 0.0
30 20:35 Calm 10.00 Overcast SCT040 OVC060 71.6 41 33% 29.96 0.0
30 20:15 Calm 10.00 Mostly Cloudy FEW043 BKN060 BKN075 71.6 41 33% 29.96 0.0
30 19:55 Calm 10.00 A Few Clouds FEW060 73.4 41 31% 29.96 0.0
30 19:35 Calm 10.00 Fair CLR 73.4 39.2 29% 29.96 0.0
30 19:10 Calm 10.00 Fair CLR 77 39.2 26% 77 29.96 0.0
30 18:55 Calm 10.00 Fair CLR 77 39.2 26% 77 29.96 0.0
30 18:35 Calm 10.00 Fair CLR 78.8 39.2 24% 78 29.96 0.0
30 18:15 Calm 10.00 Fair CLR 78.8 39.2 24% 78 29.96 0.0
30 17:55 Calm 10.00 Fair CLR 78.8 39.2 24% 78 29.96 0.0
30 17:30 Calm 10.00 Fair CLR 80.6 39.2 23% 79 29.97 0.0
30 17:15 Vrbl 3 10.00 Fair CLR 80.6 39.2 23% 79 29.97 0.0
30 16:55 Calm 10.00 Fair CLR 80.6 39.2 23% 79 29.97 0.0
30 16:35 SW 8 G 14 10.00 Fair CLR 80.6 39.2 23% 79 29.97 0.0
30 16:15 Vrbl 5 G 12 10.00 Fair CLR 80.6 39.2 23% 79 29.98 0.0
30 15:50 Vrbl 3 10.00 Fair CLR 82.4 39.2 21% 80 29.98 0.0
30 15:35 Calm 10.00 Fair CLR 82.4 39.2 21% 80 29.98 0.0
30 15:15 Vrbl 5 G 12 10.00 Fair CLR 82.4 39.2 21% 80 29.99 0.0
30 14:55 Vrbl 6 10.00 Fair CLR 82.4 39.2 21% 80 30 0.0
30 14:35 Vrbl 7 10.00 Fair CLR 80.6 39.2 23% 79 30 0.0
30 14:10 Calm 10.00 Fair CLR 80.6 39.2 23% 79 30.01 0.0
30 13:55 Vrbl 5 10.00 Fair CLR 80.6 39.2 23% 79 30.01 0.0
30 13:35 Vrbl 3 10.00 Fair CLR 82.4 39.2 21% 80 30.01 0.0
30 13:15 Calm 10.00 Fair CLR 82.4 39.2 21% 80 30.01 0.0
30 12:55 SW 8 10.00 Fair CLR 82.4 39.2 21% 80 30.01 0.0
30 12:30 Vrbl 7 10.00 Fair CLR 80.6 37.4 21% 79 30.01 0.0
30 12:15 Vrbl 5 G 13 10.00 Fair CLR 82.4 37.4 20% 80 30.01 0.0
30 11:55 Vrbl 6 G 13 10.00 Fair CLR 80.6 37.4 21% 79 30.01 0.0
30 11:35 SE 9 G 16 10.00 Fair CLR 78.8 37.4 23% 78 30.01 0.0
30 11:15 Vrbl 7 10.00 Fair CLR 78.8 37.4 23% 78 30.02 0.0
30 10:50 Vrbl 3 G 13 10.00 Fair CLR 77 37.4 24% 77 30.02 0.0
30 10:35 Vrbl 5 10.00 Fair CLR 77 37.4 24% 77 30.02 0.0
30 10:15 Calm 10.00 Fair CLR 77 39.2 26% 77 30.01 0.0
30 09:55 Calm 10.00 Fair CLR 75.2 39.2 27% 77 30.01 0.0
30 09:35 Calm 10.00 Fair CLR 73.4 39.2 29% 30.01 0.0
30 09:10 Calm 10.00 Fair CLR 73.4 39.2 29% 30.01 0.0
30 08:55 Calm 10.00 Fair CLR 73.4 41 31% 30.01 0.0
30 08:35 Calm 10.00 Fair CLR 71.6 39.2 31% 30.01 0.0
30 08:15 SE 3 10.00 Fair CLR 69.8 39.2 33% 30.01 0.0
30 07:55 Calm 10.00 Fair CLR 69.8 37.4 31% 30.01 0.0
30 07:30 E 6 10.00 Fair CLR 68 37.4 33% 30 0.0
30 07:15 E 6 10.00 Fair CLR 66.2 37.4 35% 30 0.0
30 06:55 E 5 10.00 Fair CLR 66.2 35.6 32% 29.99 0.0
30 06:35 E 6 10.00 Fair CLR 66.2 35.6 32% 29.99 0.0
30 06:15 E 6 10.00 Fair CLR 66.2 35.6 32% 29.99 0.0
30 05:50 E 6 10.00 Fair CLR 66.2 33.8 30% 29.98 0.0
30 05:35 E 6 10.00 Fair CLR 66.2 33.8 30% 29.98 0.0
30 05:15 E 7 10.00 Fair CLR 68 33.8 28% 29.98 0.0
30 04:55 E 7 10.00 Fair CLR 68 33.8 28% 29.98 0.0
30 04:35 E 7 10.00 Fair CLR 68 33.8 28% 29.98 0.0
30 04:10 E 6 10.00 Fair CLR 68 33.8 28% 29.99 0.0
30 03:55 E 7 10.00 Fair CLR 68 33.8 28% 29.99 0.0
30 03:35 E 7 10.00 Fair CLR 68 35.6 30% 29.99 0.0
30 03:15 E 7 10.00 Fair CLR 68 35.6 30% 29.99 0.0
30 02:55 E 5 10.00 Fair CLR 68 35.6 30% 29.99 0.0
30 02:30 E 6 10.00 Fair CLR 68 33.8 28% 29.99 0.0
30 02:15 E 6 10.00 Fair CLR 68 33.8 28% 29.99 0.0
30 01:55 E 7 10.00 Fair CLR 68 32 26% 29.99 0.0
30 01:35 E 7 10.00 Fair CLR 69.8 32 25% 29.99 0.0
30 01:15 E 7 10.00 Fair CLR 68 30.2 24% 29.99 0.0
30 00:50 E 6 10.00 Fair CLR 68 30.2 24% 29.99 0.0
30 00:35 E 7 10.00 Fair CLR 68 32 26% 30 0.0
30 00:15 Calm 10.00 Fair CLR 66.2 32 28% 30 0.0
29 23:55 Calm 10.00 Fair CLR 66.2 33.8 30% 29.99 0.0
29 23:35 Calm 10.00 Fair CLR 66.2 33.8 30% 29.99 0.0
29 23:10 Calm 10.00 Fair CLR 68 33.8 28% 30 0.0
29 22:55 Calm 10.00 Fair CLR 66.2 33.8 30% 30 0.0
29 22:35 E 5 10.00 Fair CLR 66.2 35.6 32% 30.01 0.0
29 22:15 Calm 10.00 Fair CLR 66.2 35.6 32% 30.01 0.0
29 21:55 Calm 10.00 Fair CLR 66.2 35.6 32% 30.01 0.0
29 21:30 Calm 10.00 Fair CLR 68 35.6 30% 30.01 0.0
29 21:15 Calm 10.00 Fair CLR 68 35.6 30% 30.01 0.0
29 20:55 Calm 10.00 Fair CLR 69.8 35.6 29% 30 0.0
29 20:35 Calm 10.00 Fair CLR 69.8 35.6 29% 30 0.0
29 20:15 Calm 10.00 Fair CLR 71.6 33.8 25% 29.99 0.0
29 19:50 Calm 10.00 Fair CLR 71.6 32 23% 29.98 0.0
29 19:35 Calm 10.00 Fair CLR 73.4 32 22% 29.98 0.0
29 19:15 Calm 10.00 Fair CLR 75.2 30.2 19% 76 29.98 0.0
29 18:55 Calm 10.00 Fair CLR 77 26.6 15% 77 29.99 0.0
29 18:35 Calm 10.00 Fair CLR 77 19.4 11% 76 29.99 0.0
29 18:10 Vrbl 3 10.00 Fair CLR 78.8 15.8 9% 77 29.99 0.0
29 17:55 Vrbl 5 10.00 Fair CLR 80.6 21.2 11% 79 29.99 0.0
29 17:35 Vrbl 5 G 12 10.00 Fair CLR 78.8 23 12% 77 29.99 0.0
29 17:15 Vrbl 5 10.00 Fair CLR 80.6 23 12% 79 30 0.0
29 16:55 Vrbl 5 G 13 10.00 Fair CLR 80.6 21.2 11% 79 30 0.0
29 16:30 Vrbl 6 G 14 10.00 Fair CLR 80.6 28.4 15% 79 30 0.0
29 16:15 Vrbl 6 G 14 10.00 Fair CLR 80.6 28.4 15% 79 30 0.0
29 15:55 Calm 10.00 Fair CLR 82.4 33.8 17% 80 30.01 0.0
29 15:35 Vrbl 6 10.00 Fair CLR 80.6 37.4 21% 79 30.02 0.0
29 15:15 SW 8 G 15 10.00 Fair CLR 82.4 37.4 20% 80 30.02 0.0
29 14:50 Vrbl 7 G 16 10.00 Fair CLR 80.6 37.4 21% 79 30.03 0.0
29 14:35 Vrbl 6 G 17 10.00 Fair CLR 80.6 37.4 21% 79 30.03 0.0
29 14:15 Vrbl 7 G 16 10.00 Fair CLR 80.6 37.4 21% 79 30.04 0.0
29 13:55 SW 9 G 16 10.00 Fair CLR 80.6 37.4 21% 79 30.04 0.0
29 13:35 Vrbl 7 G 13 10.00 Fair CLR 82.4 39.2 21% 80 30.04 0.0
29 13:10 Vrbl 5 G 13 10.00 Fair CLR 80.6 37.4 21% 79 30.05 0.0
29 12:55 Vrbl 5 G 17 10.00 Fair CLR 80.6 37.4 21% 79 30.05 0.0
29 12:35 Vrbl 6 G 14 10.00 Fair CLR 80.6 35.6 20% 79 30.05 0.0
29 12:15 Vrbl 6 G 14 10.00 Fair CLR 78.8 35.6 21% 78 30.06 0.0
29 11:55 Vrbl 6 G 12 10.00 Fair CLR 78.8 35.6 21% 78 30.06 0.0
29 11:30 Vrbl 7 G 15 10.00 Fair CLR 77 41 28% 78 30.06 0.0
29 11:15 Calm 10.00 Fair CLR 77 44.6 32% 78 30.06 0.0
29 10:55 Vrbl 6 10.00 Fair CLR 75.2 46.4 36% 77 30.06 0.0
29 10:35 Calm 10.00 Fair CLR 75.2 50 41% 78 30.06 0.0
29 10:15 Vrbl 6 G 14 10.00 Fair CLR 75.2 50 41% 78 30.05 0.0
29 09:50 Vrbl 7 10.00 Fair CLR 73.4 50 44% 30.05 0.0
29 09:35 SE 8 10.00 Fair CLR 73.4 50 44% 30.05 0.0
29 09:15 Calm 10.00 Fair CLR 73.4 50 44% 30.04 0.0
29 08:55 Calm 10.00 Fair CLR 69.8 51.8 53% 30.04 0.0
29 08:35 SE 5 10.00 Fair CLR 69.8 51.8 53% 30.03 0.0
29 08:10 SE 5 10.00 Fair CLR 68 50 53% 30.04 0.0
29 07:55 SE 5 10.00 Fair CLR 68 50 53% 30.03 0.0
29 07:35 SE 3 10.00 Fair CLR 68 50 53% 30.03 0.0
29 07:15 SE 5 10.00 Fair CLR 68 50 53% 30.02 0.0
29 06:55 Vrbl 5 10.00 Fair CLR 66.2 50 56% 30.02 0.0
29 06:30 Vrbl 5 10.00 Fair CLR 66.2 50 56% 30.02 0.0
29 06:15 E 7 10.00 Fair CLR 68 50 53% 30.01 0.0
29 05:55 E 6 10.00 Fair CLR 68 50 53% 30.02 0.0
29 05:35 E 7 10.00 Fair CLR 68 51.8 56% 30.02 0.0
29 04:50 E 7 10.00 Fair CLR 68 53.6 60% 30.02 0.0
29 04:35 SE 6 10.00 Fair CLR 68 53.6 60% 30.02 0.0
29 04:15 E 7 10.00 Fair CLR 68 53.6 60% 30.02 0.0
29 03:55 E 7 10.00 Fair CLR 68 53.6 60% 30.02 0.0
29 03:35 E 6 10.00 Fair CLR 68 53.6 60% 30.02 0.0
29 03:10 SE 6 10.00 Fair CLR 69.8 53.6 57% 30.03 0.0
29 02:55 SE 6 10.00 Fair CLR 69.8 53.6 57% 30.03 0.0
29 02:35 E 7 10.00 Fair CLR 69.8 53.6 57% 30.03 0.0
29 02:15 Vrbl 6 10.00 Fair CLR 69.8 53.6 57% 30.03 0.0
29 01:55 E 6 10.00 Fair CLR 69.8 55.4 60% 30.03 0.0
29 01:30 E 5 10.00 Fair CLR 69.8 55.4 60% 30.04 0.0
29 01:15 E 5 10.00 Fair CLR 69.8 55.4 60% 30.04 0.0
29 00:55 E 7 10.00 Fair CLR 69.8 55.4 60% 30.04 0.0
29 00:35 E 6 10.00 Fair CLR 69.8 55.4 60% 30.04 0.0
29 00:15 E 6 10.00 Fair CLR 69.8 55.4 60% 30.04 0.0
28 23:50 E 7 10.00 Fair CLR 69.8 53.6 57% 30.04 0.0
28 23:35 E 5 10.00 Fair CLR 69.8 53.6 57% 30.05 0.0
28 23:15 E 5 10.00 Fair CLR 69.8 53.6 57% 30.05 0.0
28 22:55 E 6 10.00 Fair CLR 69.8 53.6 57% 30.05 0.0
28 22:35 E 6 10.00 Fair CLR 69.8 51.8 53% 30.05 0.0
28 22:10 SE 5 10.00 Fair CLR 69.8 51.8 53% 30.06 0.0
28 21:55 E 5 10.00 Fair CLR 69.8 51.8 53% 30.06 0.0
28 21:35 E 6 10.00 Fair CLR 69.8 50 50% 30.06 0.0
28 21:15 Calm 10.00 Fair CLR 69.8 50 50% 30.06 0.0
28 20:55 Calm 10.00 Fair CLR 69.8 50 50% 30.06 0.0
28 20:30 Calm 10.00 Partly Cloudy SCT120 69.8 51.8 53% 30.06 0.0
28 20:15 Calm 10.00 A Few Clouds FEW120 71.6 51.8 50% 30.06 0.0
28 19:55 Calm 10.00 Fair CLR 71.6 51.8 50% 30.06 0.0
28 19:35 Calm 10.00 A Few Clouds FEW100 71.6 51.8 50% 30.06 0.0
28 19:15 Calm 10.00 Fair CLR 71.6 51.8 50% 30.06 0.0
28 18:50 Calm 10.00 Fair CLR 71.6 51.8 50% 30.06 0.0
28 18:35 Calm 10.00 Fair CLR 71.6 51.8 50% 30.07 0.0
28 18:15 Calm 10.00 Fair CLR 73.4 51.8 47% 30.07 0.0
28 17:55 Calm 10.00 Fair CLR 73.4 51.8 47% 30.07 0.0
28 17:35 Calm 10.00 Fair CLR 73.4 51.8 47% 30.07 0.0
28 17:10 Calm 10.00 Fair CLR 75.2 51.8 44% 78 30.07 0.0
28 16:55 Calm 10.00 Fair CLR 75.2 51.8 44% 78 30.07 0.0
28 16:35 Vrbl 5 10.00 Fair CLR 75.2 51.8 44% 78 30.07 0.0
28 16:15 Calm 10.00 Fair CLR 77 51.8 42% 78 30.08 0.0
28 15:55 Calm 10.00 Fair CLR 75.2 51.8 44% 78 30.08 0.0
28 15:30 Calm 10.00 Fair CLR 77 51.8 42% 78 30.09 0.0
28 15:15 Vrbl 3 G 13 10.00 Fair CLR 77 51.8 42% 78 30.09 0.0
28 14:55 SW 6 10.00 Fair CLR 75.2 53.6 47% 78 30.09 0.0
28 14:35 Calm 10.00 Fair CLR 75.2 53.6 47% 78 30.1 0.0
28 14:15 Vrbl 3 10.00 Fair CLR 75.2 53.6 47% 78 30.1 0.0
28 13:50 Calm 10.00 Fair CLR 75.2 53.6 47% 78 30.1 0.0
28 13:35 Calm 10.00 Fair CLR 75.2 53.6 47% 78 30.1 0.0
28 13:15 Vrbl 3 10.00 Partly Cloudy SCT090 75.2 53.6 47% 78 30.1 0.0
28 12:55 Calm 10.00 Mostly Cloudy BKN090 75.2 53.6 47% 78 30.11 0.0
28 12:35 Calm 10.00 A Few Clouds FEW090 73.4 51.8 47% 30.11 0.0
28 12:10 S 6 G 12 10.00 Fair CLR 71.6 50 47% 30.11 0.0
28 11:55 Vrbl 7 10.00 Fair CLR 73.4 50 44% 30.11 0.0
28 11:35 Vrbl 3 10.00 Fair CLR 73.4 48.2 41% 30.11 0.0
28 11:15 Calm 10.00 Fair CLR 73.4 48.2 41% 30.11 0.0
28 10:55 Vrbl 6 G 18 10.00 Fair CLR 73.4 46.4 38% 30.1 0.0
28 10:30 Vrbl 5 G 13 10.00 Fair CLR 73.4 44.6 36% 30.09 0.0
28 10:15 Vrbl 7 G 13 10.00 Fair CLR 71.6 44.6 38% 30.09 0.0
28 09:55 Vrbl 5 10.00 Fair CLR 71.6 46.4 41% 30.08 0.0
28 09:35 Vrbl 7 10.00 Fair CLR 71.6 46.4 41% 30.07 0.0
28 09:15 SE 6 10.00 Fair CLR 71.6 42.8 36% 30.06 0.0
Date Time (pdt) Wind (mph) Vis. (mi.) Weather Sky Cond. Air Dwpt Max. Min. Relative Humidity Wind Chill (°F) Heat Index (°F) altimeter (in) sea level (mb) 1 hr 3 hr 6 hr
6 hour
Temperature (ºF) Pressure Precipitation (in)